createdAt,value
2018-12-28T00:02:04.247Z,41.50
2018-12-28T00:04:55.225Z,44.77
2018-12-28T00:07:45.940Z,50.67
2018-12-28T00:10:36.240Z,49.77
2018-12-28T00:13:27.256Z,50.60
2018-12-28T00:16:17.420Z,54.80
2018-12-28T00:19:07.534Z,50.10
2018-12-28T00:21:57.678Z,55.33
2018-12-28T00:24:48.497Z,49.43
2018-12-28T00:27:39.031Z,51.63
2018-12-28T00:30:29.499Z,52.90
2018-12-28T00:33:20.595Z,56.27
2018-12-28T00:36:10.844Z,47.83
2018-12-28T00:39:04.902Z,47.63
2018-12-28T00:41:53.973Z,48.43
2018-12-28T00:44:43.813Z,47.57
2018-12-28T00:47:33.897Z,52.60
2018-12-28T00:50:23.834Z,45.30
2018-12-28T00:53:14.880Z,41.97
2018-12-28T00:56:04.948Z,38.63
2018-12-28T00:58:55.905Z,42.10
2018-12-28T01:01:45.957Z,36.53
2018-12-28T01:04:36.019Z,42.70
2018-12-28T01:07:27.191Z,40.63
2018-12-28T01:10:18.064Z,39.33
2018-12-28T01:13:08.819Z,49.30
2018-12-28T01:15:58.953Z,42.27
2018-12-28T01:18:49.874Z,41.73
2018-12-28T01:21:40.002Z,42.17
2018-12-28T01:24:30.143Z,40.30
2018-12-28T01:27:20.696Z,32.27
2018-12-28T01:30:11.366Z,33.50
2018-12-28T01:33:02.087Z,34.03
2018-12-28T01:35:52.051Z,35.53
2018-12-28T01:38:43.110Z,32.93
2018-12-28T01:41:34.111Z,34.10
2018-12-28T01:44:24.622Z,32.00
2018-12-28T01:47:15.661Z,37.17
2018-12-28T01:50:06.357Z,32.57
2018-12-28T01:52:56.420Z,32.80
2018-12-28T01:55:47.431Z,37.57
2018-12-28T01:58:38.151Z,37.57
2018-12-28T02:01:28.067Z,35.30
2018-12-28T02:04:18.556Z,42.97
2018-12-28T02:07:08.955Z,40.80
2018-12-28T02:09:59.464Z,44.10
2018-12-28T02:12:50.039Z,41.33
2018-12-28T02:15:41.367Z,42.40
2018-12-28T02:18:31.345Z,45.03
2018-12-28T02:21:22.313Z,44.50
2018-12-28T02:24:12.103Z,30.67
2018-12-28T02:27:02.869Z,39.97
2018-12-28T02:29:53.815Z,33.23
2018-12-28T02:32:44.893Z,38.10
2018-12-28T02:35:34.936Z,37.10
2018-12-28T02:38:25.881Z,38.73
2018-12-28T02:41:16.625Z,36.30
2018-12-28T02:44:07.386Z,35.73
2018-12-28T02:46:58.485Z,42.50
2018-12-28T02:49:49.226Z,35.43
2018-12-28T02:52:39.605Z,35.20
2018-12-28T02:55:30.416Z,35.47
2018-12-28T02:58:20.652Z,36.67
2018-12-28T03:01:12.513Z,36.73
2018-12-28T03:04:02.878Z,36.63
2018-12-28T03:06:53.404Z,39.27
2018-12-28T03:09:45.356Z,33.77
2018-12-28T03:12:36.088Z,34.07
2018-12-28T03:15:26.704Z,38.33
2018-12-28T03:18:16.606Z,30.63
2018-12-28T03:21:06.783Z,32.47
2018-12-28T03:23:57.462Z,35.77
2018-12-28T03:26:48.433Z,33.90
2018-12-28T03:29:38.669Z,36.07
2018-12-28T03:32:28.824Z,34.67
2018-12-28T03:35:19.336Z,35.40
2018-12-28T03:38:10.299Z,32.83
2018-12-28T03:41:00.554Z,33.40
2018-12-28T03:43:51.673Z,41.63
2018-12-28T03:46:42.674Z,30.90
2018-12-28T03:49:33.398Z,35.07
2018-12-28T03:52:24.120Z,34.33
2018-12-28T03:55:15.022Z,32.83
2018-12-28T03:58:05.527Z,34.67
2018-12-28T04:00:55.796Z,39.20
2018-12-28T04:03:46.589Z,36.20
2018-12-28T04:06:37.827Z,27.70
2018-12-28T04:09:27.986Z,32.37
2018-12-28T04:12:18.128Z,33.43
2018-12-28T04:15:08.022Z,37.30
2018-12-28T04:17:58.083Z,33.67
2018-12-28T04:20:49.771Z,33.57
2018-12-28T04:23:41.866Z,35.13
2018-12-28T04:26:32.537Z,34.13
2018-12-28T04:29:22.864Z,31.40
2018-12-28T04:32:13.542Z,31.93
2018-12-28T04:35:05.219Z,33.60
2018-12-28T04:37:56.977Z,29.90
2018-12-28T04:40:47.128Z,39.87
2018-12-28T04:43:37.511Z,39.37
2018-12-28T04:46:27.512Z,34.60
2018-12-28T04:49:18.661Z,36.53
2018-12-28T04:52:09.000Z,39.33
2018-12-28T04:54:59.722Z,36.17
2018-12-28T04:57:50.627Z,40.00
2018-12-28T05:00:42.499Z,38.67
2018-12-28T05:03:52.218Z,38.07
2018-12-28T05:07:21.999Z,29.83
2018-12-28T05:10:44.034Z,35.53
2018-12-28T05:14:27.325Z,29.83
2018-12-28T05:18:25.254Z,29.73
2018-12-28T05:22:24.944Z,36.83
2018-12-28T05:26:09.620Z,35.33
2018-12-28T05:29:36.737Z,39.33
2018-12-28T05:32:40.877Z,35.73
2018-12-28T05:35:31.919Z,39.70
2018-12-28T05:38:22.578Z,38.60
2018-12-28T05:41:14.667Z,38.73
2018-12-28T05:44:04.693Z,43.50
2018-12-28T05:46:55.830Z,34.47
2018-12-28T05:49:47.504Z,34.17
2018-12-28T05:52:37.397Z,34.97
2018-12-28T05:55:27.729Z,33.20
2018-12-28T05:58:18.479Z,37.17
2018-12-28T06:01:08.551Z,40.93
2018-12-28T06:03:59.431Z,37.63
2018-12-28T06:06:49.611Z,41.17
2018-12-28T06:09:40.345Z,35.33
2018-12-28T06:12:31.084Z,43.20
2018-12-28T06:15:22.130Z,34.90
2018-12-28T06:18:13.100Z,38.90
2018-12-28T06:21:03.865Z,36.20
2018-12-28T06:23:53.805Z,35.37
2018-12-28T06:26:44.539Z,33.10
2018-12-28T06:29:35.417Z,34.63
2018-12-28T06:32:26.351Z,32.47
2018-12-28T06:35:17.261Z,36.87
2018-12-28T06:38:08.548Z,31.70
2018-12-28T06:40:59.259Z,32.50
2018-12-28T06:43:50.484Z,35.37
2018-12-28T06:46:41.246Z,33.53
2018-12-28T06:49:33.223Z,30.00
2018-12-28T06:52:24.336Z,33.97
2018-12-28T06:56:17.690Z,30.00
2018-12-28T07:00:01.057Z,24.40
2018-12-28T07:03:39.785Z,37.07
2018-12-28T07:07:18.951Z,29.93
2018-12-28T07:11:24.369Z,35.70
2018-12-28T07:15:00.693Z,36.63
2018-12-28T07:18:43.435Z,35.27
2018-12-28T07:22:44.569Z,34.53
2018-12-28T07:26:29.721Z,41.63
2018-12-28T07:30:34.694Z,33.97
2018-12-28T07:34:41.572Z,38.53
2018-12-28T07:39:05.774Z,30.23
2018-12-28T07:42:49.361Z,33.10
2018-12-28T07:46:34.467Z,36.17
2018-12-28T07:50:17.489Z,36.60
2018-12-28T07:53:56.628Z,41.87
2018-12-28T07:58:14.525Z,37.97
2018-12-28T08:02:16.731Z,42.63
2018-12-28T08:06:11.068Z,38.20
2018-12-28T08:10:10.674Z,32.10
2018-12-28T08:13:54.913Z,35.60
2018-12-28T08:17:50.489Z,35.90
2018-12-28T08:21:25.386Z,35.80
2018-12-28T08:25:22.858Z,34.70
2018-12-28T08:29:09.558Z,37.57
2018-12-28T08:32:45.536Z,37.20
2018-12-28T08:36:36.667Z,35.40
2018-12-28T08:40:25.489Z,32.60
2018-12-28T08:44:16.154Z,42.93
2018-12-28T08:47:46.262Z,32.90
2018-12-28T08:51:04.515Z,32.23
2018-12-28T08:54:58.512Z,39.70
2018-12-28T08:58:48.366Z,36.53
2018-12-28T09:03:00.374Z,40.87
2018-12-28T09:07:06.303Z,39.13
2018-12-28T09:10:55.079Z,32.30
2018-12-28T09:14:38.440Z,31.20
2018-12-28T09:18:16.173Z,34.00
2018-12-28T09:21:41.386Z,40.47
2018-12-28T09:25:44.666Z,50.40
2018-12-28T09:29:21.226Z,33.17
2018-12-28T09:32:54.573Z,43.10
2018-12-28T09:36:28.674Z,47.20
2018-12-28T09:40:42.059Z,46.47
2018-12-28T09:44:29.463Z,39.83
2018-12-28T09:48:22.736Z,43.93
2018-12-28T09:52:02.705Z,43.87
2018-12-28T09:55:41.650Z,44.33
2018-12-28T09:59:14.672Z,29.40
2018-12-28T10:03:08.567Z,43.20
2018-12-28T10:06:54.785Z,41.30
2018-12-28T10:10:21.251Z,46.10
2018-12-28T10:13:38.679Z,43.33
2018-12-28T10:16:35.283Z,43.93
2018-12-28T10:19:25.985Z,37.07
2018-12-28T10:22:16.926Z,49.17
2018-12-28T10:25:07.572Z,51.23
2018-12-28T10:27:57.934Z,45.50
2018-12-28T10:30:48.011Z,43.17
2018-12-28T10:33:38.473Z,43.43
2018-12-28T10:36:28.888Z,45.83
2018-12-28T10:39:19.712Z,48.30
2018-12-28T10:42:10.080Z,54.37
2018-12-28T10:45:00.612Z,42.53
2018-12-28T10:47:51.616Z,45.20
2018-12-28T10:50:42.231Z,52.53
2018-12-28T10:53:32.609Z,47.53
2018-12-28T10:56:23.298Z,41.77
2018-12-28T10:59:13.636Z,49.43
2018-12-28T11:02:03.963Z,43.60
2018-12-28T11:04:54.570Z,48.17
2018-12-28T11:07:45.610Z,40.93
2018-12-28T11:10:36.646Z,43.63
2018-12-28T11:13:27.752Z,41.83
2018-12-28T11:16:18.266Z,41.23
2018-12-28T11:19:09.439Z,45.83
2018-12-28T11:21:59.812Z,49.80
2018-12-28T11:24:50.247Z,38.60
2018-12-28T11:27:41.037Z,44.23
2018-12-28T11:30:31.949Z,35.03
2018-12-28T11:33:22.931Z,44.60
2018-12-28T11:36:14.094Z,37.80
2018-12-28T11:39:07.420Z,40.47
2018-12-28T11:41:57.543Z,46.17
2018-12-28T11:44:47.673Z,42.90
2018-12-28T11:47:38.090Z,42.33
2018-12-28T11:50:28.305Z,39.83
2018-12-28T11:53:19.331Z,43.97
2018-12-28T11:56:09.664Z,41.70
2018-12-28T11:59:00.989Z,34.60
2018-12-28T12:01:51.802Z,44.77
2018-12-28T12:04:42.324Z,46.63
2018-12-28T12:07:33.463Z,42.87
2018-12-28T12:10:23.784Z,44.57
2018-12-28T12:13:14.223Z,39.20
2018-12-28T12:16:05.187Z,45.17
2018-12-28T12:18:55.934Z,37.90
2018-12-28T12:21:46.977Z,36.13
2018-12-28T12:24:37.421Z,46.90
2018-12-28T12:27:28.264Z,62.17
2018-12-28T12:30:19.060Z,58.93
2018-12-28T12:33:09.886Z,65.50
2018-12-28T12:36:00.808Z,53.23
2018-12-28T12:38:52.083Z,44.20
2018-12-28T12:41:43.220Z,53.60
2018-12-28T12:44:33.978Z,49.63
2018-12-28T12:47:25.742Z,43.97
2018-12-28T12:50:16.810Z,46.57
2018-12-28T12:53:07.505Z,42.60
2018-12-28T12:55:59.752Z,49.23
2018-12-28T12:58:50.541Z,50.30
2018-12-28T13:01:42.093Z,51.67
2018-12-28T13:04:32.876Z,48.77
2018-12-28T13:07:22.907Z,42.70
2018-12-28T13:10:13.397Z,49.23
2018-12-28T13:13:04.246Z,43.97
2018-12-28T13:15:55.285Z,49.13
2018-12-28T13:18:45.705Z,46.50
2018-12-28T13:21:35.854Z,45.17
2018-12-28T13:24:26.922Z,51.73
2018-12-28T13:27:17.009Z,49.57
2018-12-28T13:30:08.819Z,43.30
2018-12-28T13:32:59.201Z,51.13
2018-12-28T13:35:49.439Z,45.23
2018-12-28T13:38:39.496Z,48.40
2018-12-28T13:41:30.286Z,44.77
2018-12-28T13:44:20.503Z,49.73
2018-12-28T13:47:10.767Z,46.67
2018-12-28T13:50:01.045Z,48.83
2018-12-28T13:52:51.860Z,42.03
2018-12-28T13:55:42.836Z,52.20
2018-12-28T13:58:33.327Z,44.00
2018-12-28T14:01:24.499Z,48.90
2018-12-28T14:04:15.581Z,43.67
2018-12-28T14:07:05.972Z,42.10
2018-12-28T14:09:57.085Z,46.40
2018-12-28T14:12:47.830Z,45.33
2018-12-28T14:15:38.011Z,37.70
2018-12-28T14:18:28.841Z,45.57
2018-12-28T14:21:19.122Z,47.50
2018-12-28T14:24:09.597Z,42.20
2018-12-28T14:27:00.256Z,45.03
2018-12-28T14:29:50.853Z,39.07
2018-12-28T14:32:41.911Z,44.30
2018-12-28T14:35:32.747Z,37.83
2018-12-28T14:38:22.841Z,41.10
2018-12-28T14:41:13.175Z,40.20
2018-12-28T14:44:04.261Z,33.63
2018-12-28T14:46:54.180Z,35.33
2018-12-28T14:49:44.962Z,50.13
2018-12-28T14:52:35.847Z,45.70
2018-12-28T14:55:25.958Z,33.97
2018-12-28T14:58:16.425Z,43.83
2018-12-28T15:01:07.815Z,45.83
2018-12-28T15:03:58.473Z,47.00
2018-12-28T15:06:49.507Z,42.37
2018-12-28T15:09:40.280Z,41.80
2018-12-28T15:12:30.966Z,44.57
2018-12-28T15:15:21.111Z,42.13
2018-12-28T15:18:11.225Z,40.20
2018-12-28T15:21:02.097Z,45.07
2018-12-28T15:23:52.856Z,39.87
2018-12-28T15:26:43.040Z,37.83
2018-12-28T15:29:33.686Z,38.40
2018-12-28T15:32:23.927Z,43.40
2018-12-28T15:35:14.659Z,44.17
2018-12-28T15:38:09.194Z,39.23
2018-12-28T15:41:00.239Z,39.27
2018-12-28T15:43:50.352Z,41.20
2018-12-28T15:46:40.262Z,37.23
2018-12-28T15:49:31.573Z,44.43
2018-12-28T15:52:21.972Z,44.63
2018-12-28T15:55:12.996Z,41.73
2018-12-28T15:58:03.180Z,38.37
2018-12-28T16:00:54.450Z,44.90
2018-12-28T16:03:45.637Z,38.23
2018-12-28T16:06:35.741Z,39.27
2018-12-28T16:09:26.507Z,44.87
2018-12-28T16:12:16.599Z,43.33
2018-12-28T16:15:07.621Z,38.53
2018-12-28T16:17:58.322Z,43.03
2018-12-28T16:20:48.190Z,38.33
2018-12-28T16:23:38.953Z,29.60
2018-12-28T16:26:29.272Z,40.13
2018-12-28T16:29:19.746Z,38.70
2018-12-28T16:32:10.284Z,39.63
2018-12-28T16:35:00.680Z,38.60
2018-12-28T16:37:51.818Z,29.40
2018-12-28T16:40:42.647Z,31.03
2018-12-28T16:43:33.337Z,34.30
2018-12-28T16:46:23.332Z,35.97
2018-12-28T16:49:14.074Z,35.40
2018-12-28T16:52:05.146Z,35.20
2018-12-28T16:54:55.462Z,30.23
2018-12-28T16:57:45.653Z,32.50
2018-12-28T17:00:35.854Z,30.67
2018-12-28T17:03:26.376Z,30.37
2018-12-28T17:06:16.938Z,32.60
2018-12-28T17:09:09.722Z,33.93
2018-12-28T17:11:59.809Z,40.43
2018-12-28T17:14:50.950Z,33.03
2018-12-28T17:17:42.102Z,26.03
2018-12-28T17:20:32.680Z,37.63
2018-12-28T17:23:23.339Z,29.20
2018-12-28T17:26:13.178Z,29.20
2018-12-28T17:29:04.160Z,30.83
2018-12-28T17:31:54.897Z,32.77
2018-12-28T17:34:45.321Z,33.77
2018-12-28T17:37:35.278Z,29.67
2018-12-28T17:40:26.349Z,35.37
2018-12-28T17:43:20.038Z,32.97
2018-12-28T17:46:09.679Z,30.40
2018-12-28T17:49:00.056Z,31.97
2018-12-28T17:51:51.202Z,29.87
2018-12-28T17:54:42.296Z,32.13
2018-12-28T17:57:32.594Z,31.37
2018-12-28T18:00:22.745Z,32.90
2018-12-28T18:03:13.757Z,33.63
2018-12-28T18:06:03.838Z,45.13
2018-12-28T18:08:53.938Z,32.40
2018-12-28T18:11:44.087Z,31.93
2018-12-28T18:14:34.305Z,30.80
2018-12-28T18:17:25.047Z,31.93
2018-12-28T18:20:16.853Z,37.00
2018-12-28T18:23:07.718Z,38.07
2018-12-28T18:25:58.839Z,31.10
2018-12-28T18:28:49.164Z,36.23
2018-12-28T18:31:39.395Z,36.07
2018-12-28T18:34:30.359Z,34.27
2018-12-28T18:37:21.354Z,31.70
2018-12-28T18:40:13.752Z,35.03
2018-12-28T18:43:04.809Z,30.17
2018-12-28T18:45:54.930Z,29.60
2018-12-28T18:48:45.906Z,28.63
2018-12-28T18:51:36.321Z,37.87
2018-12-28T18:54:27.235Z,47.00
2018-12-28T18:57:18.191Z,34.37
2018-12-28T19:00:08.249Z,34.30
2018-12-28T19:02:59.450Z,33.60
2018-12-28T19:05:50.466Z,33.63
2018-12-28T19:08:41.582Z,37.10
2018-12-28T19:11:32.072Z,32.57
2018-12-28T19:14:23.099Z,32.70
2018-12-28T19:17:13.745Z,26.93
2018-12-28T19:20:04.407Z,34.47
2018-12-28T19:22:55.342Z,30.57
2018-12-28T19:25:46.014Z,27.83
2018-12-28T19:28:36.740Z,35.83
2018-12-28T19:31:27.810Z,35.27
2018-12-28T19:34:18.853Z,41.23
2018-12-28T19:37:09.337Z,43.60
2018-12-28T19:39:59.515Z,33.83
2018-12-28T19:42:50.260Z,36.40
2018-12-28T19:45:41.477Z,40.67
2018-12-28T19:48:31.860Z,34.73
2018-12-28T19:51:23.172Z,33.43
2018-12-28T19:54:14.439Z,26.27
2018-12-28T19:57:05.378Z,31.00
2018-12-28T19:59:56.576Z,29.27
2018-12-28T20:02:47.709Z,33.30
2018-12-28T20:05:39.009Z,33.87
2018-12-28T20:08:29.779Z,31.93
2018-12-28T20:11:20.481Z,31.47
2018-12-28T20:14:11.417Z,37.00
2018-12-28T20:17:01.557Z,34.43
2018-12-28T20:19:52.281Z,33.33
2018-12-28T20:22:42.314Z,34.80
2018-12-28T20:25:33.377Z,32.73
2018-12-28T20:28:23.740Z,32.27
2018-12-28T20:31:14.650Z,27.63
2018-12-28T20:34:05.531Z,34.57
2018-12-28T20:36:55.748Z,34.77
2018-12-28T20:39:47.004Z,34.07
2018-12-28T20:42:39.007Z,34.77
2018-12-28T20:45:29.447Z,34.83
2018-12-28T20:48:20.177Z,33.20
2018-12-28T20:51:10.676Z,41.17
2018-12-28T20:54:01.636Z,36.20
2018-12-28T20:56:56.635Z,34.47
2018-12-28T20:59:47.758Z,38.57
2018-12-28T21:02:38.198Z,31.33
2018-12-28T21:05:28.332Z,35.00
2018-12-28T21:08:19.331Z,35.23
2018-12-28T21:11:10.185Z,36.53
2018-12-28T21:14:01.000Z,39.07
2018-12-28T21:16:51.818Z,33.83
2018-12-28T21:19:41.992Z,34.20
2018-12-28T21:22:33.177Z,36.10
2018-12-28T21:25:24.147Z,41.07
2018-12-28T21:28:14.243Z,36.53
2018-12-28T21:31:05.498Z,37.60
2018-12-28T21:33:56.798Z,33.20
2018-12-28T21:36:48.030Z,38.87
2018-12-28T21:39:38.863Z,33.57
2018-12-28T21:42:28.762Z,40.20
2018-12-28T21:45:18.823Z,34.93
2018-12-28T21:48:09.550Z,37.00
2018-12-28T21:51:00.490Z,39.53
2018-12-28T21:53:50.537Z,39.30
2018-12-28T21:56:42.204Z,40.37
2018-12-28T21:59:32.328Z,36.67
2018-12-28T22:02:22.547Z,33.70
2018-12-28T22:05:13.469Z,37.33
2018-12-28T22:08:04.426Z,37.50
2018-12-28T22:10:54.952Z,37.10
2018-12-28T22:13:45.445Z,38.10
2018-12-28T22:16:36.341Z,38.10
2018-12-28T22:19:27.317Z,44.40
2018-12-28T22:22:17.243Z,36.40
2018-12-28T22:25:08.100Z,37.50
2018-12-28T22:27:58.136Z,36.70
2018-12-28T22:30:49.098Z,39.57
2018-12-28T22:33:39.637Z,35.97
2018-12-28T22:36:30.625Z,36.53
2018-12-28T22:39:20.919Z,34.57
2018-12-28T22:42:12.162Z,36.20
2018-12-28T22:45:03.332Z,40.23
2018-12-28T22:47:53.699Z,38.70
2018-12-28T22:50:44.811Z,39.73
2018-12-28T22:53:35.746Z,38.27
2018-12-28T22:56:25.893Z,36.27
2018-12-28T22:59:15.884Z,38.13
2018-12-28T23:02:06.075Z,42.53
2018-12-28T23:04:57.111Z,35.07
2018-12-28T23:07:48.196Z,35.10
2018-12-28T23:10:38.510Z,43.73
2018-12-28T23:13:29.721Z,37.07
2018-12-28T23:16:20.686Z,33.23
2018-12-28T23:19:11.275Z,40.80
2018-12-28T23:22:02.433Z,44.07
2018-12-28T23:25:24.146Z,41.20
2018-12-28T23:28:14.564Z,41.63
2018-12-28T23:31:05.337Z,39.17
2018-12-28T23:33:56.012Z,42.10
2018-12-28T23:36:46.146Z,42.70
2018-12-28T23:39:37.130Z,33.90
2018-12-28T23:42:27.206Z,40.47
2018-12-28T23:45:17.556Z,35.07
2018-12-28T23:48:08.557Z,37.40
2018-12-28T23:50:59.329Z,34.10
2018-12-28T23:53:49.592Z,35.93
2018-12-28T23:56:40.712Z,36.90
2018-12-28T23:59:31.079Z,37.43
